sensor_id;sensor_type;location;lat;lon;timestamp;P1;durP1;ratioP1;P2;durP2;ratioP2
64188;SDS011;50493;50.970;10.082;2024-02-26T00:01:58;13.02;;;6.15;;
64188;SDS011;50493;50.970;10.082;2024-02-26T00:04:23;9.48;;;5.20;;
64188;SDS011;50493;50.970;10.082;2024-02-26T00:06:49;12.25;;;6.20;;
64188;SDS011;50493;50.970;10.082;2024-02-26T00:09:16;12.07;;;6.40;;
64188;SDS011;50493;50.970;10.082;2024-02-26T00:11:41;11.18;;;5.75;;
64188;SDS011;50493;50.970;10.082;2024-02-26T00:14:07;11.70;;;5.63;;
64188;SDS011;50493;50.970;10.082;2024-02-26T00:16:33;10.77;;;5.80;;
64188;SDS011;50493;50.970;10.082;2024-02-26T00:18:59;12.10;;;5.85;;
64188;SDS011;50493;50.970;10.082;2024-02-26T00:21:24;14.43;;;6.57;;
64188;SDS011;50493;50.970;10.082;2024-02-26T00:23:49;13.82;;;5.90;;
64188;SDS011;50493;50.970;10.082;2024-02-26T00:26:15;10.73;;;5.03;;
64188;SDS011;50493;50.970;10.082;2024-02-26T00:28:41;10.32;;;5.22;;
64188;SDS011;50493;50.970;10.082;2024-02-26T00:31:06;11.52;;;5.65;;
64188;SDS011;50493;50.970;10.082;2024-02-26T00:33:33;11.05;;;5.13;;
64188;SDS011;50493;50.970;10.082;2024-02-26T00:35:58;10.18;;;5.25;;
64188;SDS011;50493;50.970;10.082;2024-02-26T00:38:24;10.30;;;5.50;;
64188;SDS011;50493;50.970;10.082;2024-02-26T00:40:49;9.48;;;5.30;;
64188;SDS011;50493;50.970;10.082;2024-02-26T00:43:14;10.95;;;5.68;;
64188;SDS011;50493;50.970;10.082;2024-02-26T00:45:40;11.80;;;5.63;;
64188;SDS011;50493;50.970;10.082;2024-02-26T00:48:05;11.50;;;5.60;;
64188;SDS011;50493;50.970;10.082;2024-02-26T00:50:33;9.63;;;5.28;;
64188;SDS011;50493;50.970;10.082;2024-02-26T00:52:59;8.73;;;5.18;;
64188;SDS011;50493;50.970;10.082;2024-02-26T00:55:24;9.60;;;4.70;;
64188;SDS011;50493;50.970;10.082;2024-02-26T00:57:49;9.25;;;4.88;;
64188;SDS011;50493;50.970;10.082;2024-02-26T01:00:15;8.73;;;4.63;;
64188;SDS011;50493;50.970;10.082;2024-02-26T01:02:41;11.80;;;5.53;;
64188;SDS011;50493;50.970;10.082;2024-02-26T01:05:07;9.38;;;5.10;;
64188;SDS011;50493;50.970;10.082;2024-02-26T01:07:33;9.95;;;4.60;;
64188;SDS011;50493;50.970;10.082;2024-02-26T01:10:00;11.02;;;4.95;;
64188;SDS011;50493;50.970;10.082;2024-02-26T01:12:26;8.52;;;4.55;;
64188;SDS011;50493;50.970;10.082;2024-02-26T01:14:51;9.13;;;4.60;;
64188;SDS011;50493;50.970;10.082;2024-02-26T01:17:16;10.30;;;5.13;;
64188;SDS011;50493;50.970;10.082;2024-02-26T01:19:42;10.00;;;4.80;;
64188;SDS011;50493;50.970;10.082;2024-02-26T01:22:08;10.60;;;5.10;;
64188;SDS011;50493;50.970;10.082;2024-02-26T01:24:34;9.18;;;4.75;;
64188;SDS011;50493;50.970;10.082;2024-02-26T01:27:00;9.07;;;4.88;;
64188;SDS011;50493;50.970;10.082;2024-02-26T01:29:25;9.50;;;5.20;;
64188;SDS011;50493;50.970;10.082;2024-02-26T01:31:50;9.02;;;4.93;;
64188;SDS011;50493;50.970;10.082;2024-02-26T01:34:16;9.55;;;5.05;;
64188;SDS011;50493;50.970;10.082;2024-02-26T01:36:43;10.80;;;5.05;;
64188;SDS011;50493;50.970;10.082;2024-02-26T01:39:08;9.13;;;5.05;;
64188;SDS011;50493;50.970;10.082;2024-02-26T01:41:38;9.88;;;4.78;;
64188;SDS011;50493;50.970;10.082;2024-02-26T01:44:05;9.52;;;4.85;;
64188;SDS011;50493;50.970;10.082;2024-02-26T01:46:31;8.82;;;5.05;;
64188;SDS011;50493;50.970;10.082;2024-02-26T01:48:58;9.07;;;5.13;;
64188;SDS011;50493;50.970;10.082;2024-02-26T01:51:26;8.70;;;4.63;;
64188;SDS011;50493;50.970;10.082;2024-02-26T01:53:52;9.00;;;4.75;;
64188;SDS011;50493;50.970;10.082;2024-02-26T01:56:17;9.63;;;5.07;;
64188;SDS011;50493;50.970;10.082;2024-02-26T01:58:46;8.88;;;5.07;;
64188;SDS011;50493;50.970;10.082;2024-02-26T02:01:12;9.45;;;4.78;;
64188;SDS011;50493;50.970;10.082;2024-02-26T02:03:39;9.43;;;4.72;;
64188;SDS011;50493;50.970;10.082;2024-02-26T02:06:06;8.65;;;4.60;;
64188;SDS011;50493;50.970;10.082;2024-02-26T02:08:33;9.82;;;5.03;;
64188;SDS011;50493;50.970;10.082;2024-02-26T02:11:00;10.30;;;4.90;;
64188;SDS011;50493;50.970;10.082;2024-02-26T02:13:25;8.93;;;4.72;;
64188;SDS011;50493;50.970;10.082;2024-02-26T02:15:52;8.95;;;4.68;;
64188;SDS011;50493;50.970;10.082;2024-02-26T02:18:17;9.23;;;4.57;;
64188;SDS011;50493;50.970;10.082;2024-02-26T02:20:45;9.73;;;4.63;;
64188;SDS011;50493;50.970;10.082;2024-02-26T02:23:10;8.45;;;4.43;;
64188;SDS011;50493;50.970;10.082;2024-02-26T02:25:36;9.05;;;4.60;;
64188;SDS011;50493;50.970;10.082;2024-02-26T02:28:01;8.48;;;4.43;;
64188;SDS011;50493;50.970;10.082;2024-02-26T02:30:27;9.27;;;4.60;;
64188;SDS011;50493;50.970;10.082;2024-02-26T02:32:54;8.27;;;4.35;;
64188;SDS011;50493;50.970;10.082;2024-02-26T02:35:22;8.20;;;4.55;;
64188;SDS011;50493;50.970;10.082;2024-02-26T02:37:49;9.50;;;4.88;;
64188;SDS011;50493;50.970;10.082;2024-02-26T02:40:14;7.82;;;4.05;;
64188;SDS011;50493;50.970;10.082;2024-02-26T02:42:40;8.63;;;4.60;;
64188;SDS011;50493;50.970;10.082;2024-02-26T02:45:05;8.27;;;4.35;;
64188;SDS011;50493;50.970;10.082;2024-02-26T02:47:31;9.65;;;4.28;;
64188;SDS011;50493;50.970;10.082;2024-02-26T02:49:56;8.63;;;4.30;;
64188;SDS011;50493;50.970;10.082;2024-02-26T02:52:22;9.90;;;4.47;;
64188;SDS011;50493;50.970;10.082;2024-02-26T02:54:48;7.43;;;3.88;;
64188;SDS011;50493;50.970;10.082;2024-02-26T02:57:14;7.15;;;3.97;;
64188;SDS011;50493;50.970;10.082;2024-02-26T02:59:39;7.60;;;4.03;;
64188;SDS011;50493;50.970;10.082;2024-02-26T03:02:04;7.00;;;4.07;;
64188;SDS011;50493;50.970;10.082;2024-02-26T03:04:30;7.53;;;3.90;;
64188;SDS011;50493;50.970;10.082;2024-02-26T03:06:55;9.02;;;4.30;;
64188;SDS011;50493;50.970;10.082;2024-02-26T03:09:20;8.80;;;4.18;;
64188;SDS011;50493;50.970;10.082;2024-02-26T03:11:47;7.50;;;3.70;;
64188;SDS011;50493;50.970;10.082;2024-02-26T03:14:12;7.03;;;4.00;;
64188;SDS011;50493;50.970;10.082;2024-02-26T03:16:38;7.25;;;3.67;;
64188;SDS011;50493;50.970;10.082;2024-02-26T03:19:03;7.25;;;3.90;;
64188;SDS011;50493;50.970;10.082;2024-02-26T03:21:28;7.60;;;4.18;;
64188;SDS011;50493;50.970;10.082;2024-02-26T03:23:54;7.07;;;3.83;;
64188;SDS011;50493;50.970;10.082;2024-02-26T03:26:19;7.20;;;3.72;;
64188;SDS011;50493;50.970;10.082;2024-02-26T03:28:46;8.13;;;3.90;;
64188;SDS011;50493;50.970;10.082;2024-02-26T03:31:11;7.80;;;4.13;;
64188;SDS011;50493;50.970;10.082;2024-02-26T03:33:37;6.88;;;3.92;;
64188;SDS011;50493;50.970;10.082;2024-02-26T03:36:02;6.20;;;3.67;;
64188;SDS011;50493;50.970;10.082;2024-02-26T03:38:28;7.68;;;3.78;;
64188;SDS011;50493;50.970;10.082;2024-02-26T03:40:54;7.80;;;4.38;;
64188;SDS011;50493;50.970;10.082;2024-02-26T03:43:19;7.47;;;4.22;;
64188;SDS011;50493;50.970;10.082;2024-02-26T03:45:46;8.85;;;4.28;;
64188;SDS011;50493;50.970;10.082;2024-02-26T03:48:11;7.68;;;3.50;;
64188;SDS011;50493;50.970;10.082;2024-02-26T03:50:36;9.70;;;4.65;;
64188;SDS011;50493;50.970;10.082;2024-02-26T03:53:02;8.03;;;3.90;;
64188;SDS011;50493;50.970;10.082;2024-02-26T03:55:27;7.70;;;3.70;;
64188;SDS011;50493;50.970;10.082;2024-02-26T03:57:53;7.38;;;3.75;;
64188;SDS011;50493;50.970;10.082;2024-02-26T04:00:18;7.03;;;3.85;;
64188;SDS011;50493;50.970;10.082;2024-02-26T04:02:46;9.10;;;4.35;;
64188;SDS011;50493;50.970;10.082;2024-02-26T04:05:11;6.70;;;3.90;;
64188;SDS011;50493;50.970;10.082;2024-02-26T04:07:38;7.97;;;3.58;;
64188;SDS011;50493;50.970;10.082;2024-02-26T04:10:08;8.60;;;3.80;;
64188;SDS011;50493;50.970;10.082;2024-02-26T04:12:33;8.18;;;4.18;;
64188;SDS011;50493;50.970;10.082;2024-02-26T04:14:59;6.60;;;3.65;;
64188;SDS011;50493;50.970;10.082;2024-02-26T04:17:24;8.07;;;4.10;;
64188;SDS011;50493;50.970;10.082;2024-02-26T04:19:51;7.10;;;4.15;;
64188;SDS011;50493;50.970;10.082;2024-02-26T04:22:16;7.97;;;3.90;;
64188;SDS011;50493;50.970;10.082;2024-02-26T04:24:41;7.80;;;4.30;;
64188;SDS011;50493;50.970;10.082;2024-02-26T04:27:07;7.03;;;4.22;;
64188;SDS011;50493;50.970;10.082;2024-02-26T04:29:33;7.47;;;3.80;;
64188;SDS011;50493;50.970;10.082;2024-02-26T04:31:58;6.03;;;3.33;;
64188;SDS011;50493;50.970;10.082;2024-02-26T04:34:23;8.13;;;4.38;;
64188;SDS011;50493;50.970;10.082;2024-02-26T04:36:50;8.77;;;4.50;;
64188;SDS011;50493;50.970;10.082;2024-02-26T04:39:16;8.27;;;4.40;;
64188;SDS011;50493;50.970;10.082;2024-02-26T04:41:41;8.85;;;4.78;;
64188;SDS011;50493;50.970;10.082;2024-02-26T04:44:06;7.30;;;3.92;;
64188;SDS011;50493;50.970;10.082;2024-02-26T04:46:32;7.78;;;3.90;;
64188;SDS011;50493;50.970;10.082;2024-02-26T04:48:57;7.55;;;3.88;;
64188;SDS011;50493;50.970;10.082;2024-02-26T04:51:23;9.05;;;4.47;;
64188;SDS011;50493;50.970;10.082;2024-02-26T04:53:50;9.20;;;4.35;;
64188;SDS011;50493;50.970;10.082;2024-02-26T04:56:15;7.95;;;4.32;;
64188;SDS011;50493;50.970;10.082;2024-02-26T04:58:40;8.10;;;4.18;;
64188;SDS011;50493;50.970;10.082;2024-02-26T05:01:06;7.22;;;4.00;;
64188;SDS011;50493;50.970;10.082;2024-02-26T05:03:31;7.25;;;3.83;;
64188;SDS011;50493;50.970;10.082;2024-02-26T05:05:57;10.02;;;4.97;;
64188;SDS011;50493;50.970;10.082;2024-02-26T05:08:23;7.50;;;3.72;;
64188;SDS011;50493;50.970;10.082;2024-02-26T05:10:49;7.38;;;4.07;;
64188;SDS011;50493;50.970;10.082;2024-02-26T05:13:15;7.13;;;4.10;;
64188;SDS011;50493;50.970;10.082;2024-02-26T05:15:43;7.22;;;3.83;;
64188;SDS011;50493;50.970;10.082;2024-02-26T05:18:08;8.55;;;4.22;;
64188;SDS011;50493;50.970;10.082;2024-02-26T05:20:33;8.55;;;4.93;;
64188;SDS011;50493;50.970;10.082;2024-02-26T05:23:03;10.02;;;4.97;;
64188;SDS011;50493;50.970;10.082;2024-02-26T05:25:28;7.65;;;3.88;;
64188;SDS011;50493;50.970;10.082;2024-02-26T05:27:55;6.60;;;3.88;;
64188;SDS011;50493;50.970;10.082;2024-02-26T05:30:20;8.25;;;4.20;;
64188;SDS011;50493;50.970;10.082;2024-02-26T05:32:46;7.68;;;4.15;;
64188;SDS011;50493;50.970;10.082;2024-02-26T05:35:11;8.47;;;4.30;;
64188;SDS011;50493;50.970;10.082;2024-02-26T05:37:37;9.20;;;4.95;;
64188;SDS011;50493;50.970;10.082;2024-02-26T05:40:02;10.13;;;5.05;;
64188;SDS011;50493;50.970;10.082;2024-02-26T05:42:29;8.07;;;4.38;;
64188;SDS011;50493;50.970;10.082;2024-02-26T05:44:56;9.20;;;5.28;;
64188;SDS011;50493;50.970;10.082;2024-02-26T05:47:21;10.63;;;5.60;;
64188;SDS011;50493;50.970;10.082;2024-02-26T05:49:47;7.68;;;4.40;;
64188;SDS011;50493;50.970;10.082;2024-02-26T05:52:17;8.63;;;4.63;;
64188;SDS011;50493;50.970;10.082;2024-02-26T05:54:42;10.65;;;5.32;;
64188;SDS011;50493;50.970;10.082;2024-02-26T05:57:07;12.35;;;5.97;;
64188;SDS011;50493;50.970;10.082;2024-02-26T05:59:32;11.27;;;5.20;;
64188;SDS011;50493;50.970;10.082;2024-02-26T06:01:59;12.45;;;5.82;;
64188;SDS011;50493;50.970;10.082;2024-02-26T06:04:25;9.90;;;5.00;;
64188;SDS011;50493;50.970;10.082;2024-02-26T06:06:50;14.30;;;6.68;;
64188;SDS011;50493;50.970;10.082;2024-02-26T06:09:15;10.60;;;5.57;;
64188;SDS011;50493;50.970;10.082;2024-02-26T06:11:41;12.10;;;5.95;;
64188;SDS011;50493;50.970;10.082;2024-02-26T06:14:06;13.48;;;6.40;;
64188;SDS011;50493;50.970;10.082;2024-02-26T06:16:32;11.10;;;6.20;;
64188;SDS011;50493;50.970;10.082;2024-02-26T06:18:59;12.60;;;6.60;;
64188;SDS011;50493;50.970;10.082;2024-02-26T06:21:25;14.65;;;7.53;;
64188;SDS011;50493;50.970;10.082;2024-02-26T06:23:51;15.13;;;6.78;;
64188;SDS011;50493;50.970;10.082;2024-02-26T06:26:16;14.10;;;6.60;;
64188;SDS011;50493;50.970;10.082;2024-02-26T06:28:41;14.80;;;6.18;;
64188;SDS011;50493;50.970;10.082;2024-02-26T06:31:07;15.45;;;6.78;;
64188;SDS011;50493;50.970;10.082;2024-02-26T06:33:32;15.52;;;6.60;;
64188;SDS011;50493;50.970;10.082;2024-02-26T06:35:59;15.15;;;7.22;;
64188;SDS011;50493;50.970;10.082;2024-02-26T06:38:24;14.38;;;7.40;;
64188;SDS011;50493;50.970;10.082;2024-02-26T06:40:49;16.17;;;7.78;;
64188;SDS011;50493;50.970;10.082;2024-02-26T06:43:15;15.82;;;7.18;;
64188;SDS011;50493;50.970;10.082;2024-02-26T06:45:40;14.13;;;6.88;;
64188;SDS011;50493;50.970;10.082;2024-02-26T06:48:06;14.27;;;7.05;;
64188;SDS011;50493;50.970;10.082;2024-02-26T06:50:32;12.27;;;6.45;;
64188;SDS011;50493;50.970;10.082;2024-02-26T06:52:58;13.27;;;6.72;;
64188;SDS011;50493;50.970;10.082;2024-02-26T06:55:24;15.55;;;6.85;;
64188;SDS011;50493;50.970;10.082;2024-02-26T06:57:49;19.38;;;7.20;;
64188;SDS011;50493;50.970;10.082;2024-02-26T07:00:15;13.25;;;6.25;;
64188;SDS011;50493;50.970;10.082;2024-02-26T07:02:41;16.88;;;8.20;;
64188;SDS011;50493;50.970;10.082;2024-02-26T07:05:07;18.15;;;8.18;;
64188;SDS011;50493;50.970;10.082;2024-02-26T07:07:33;13.82;;;6.80;;
64188;SDS011;50493;50.970;10.082;2024-02-26T07:09:59;16.85;;;8.13;;
64188;SDS011;50493;50.970;10.082;2024-02-26T07:12:28;17.00;;;8.43;;
64188;SDS011;50493;50.970;10.082;2024-02-26T07:14:53;14.95;;;6.97;;
64188;SDS011;50493;50.970;10.082;2024-02-26T07:17:19;14.70;;;6.22;;
64188;SDS011;50493;50.970;10.082;2024-02-26T07:19:44;13.15;;;6.90;;
64188;SDS011;50493;50.970;10.082;2024-02-26T07:22:10;16.73;;;8.48;;
64188;SDS011;50493;50.970;10.082;2024-02-26T07:24:35;13.63;;;6.60;;
64188;SDS011;50493;50.970;10.082;2024-02-26T07:27:02;14.60;;;7.07;;
64188;SDS011;50493;50.970;10.082;2024-02-26T07:29:27;13.65;;;6.75;;
64188;SDS011;50493;50.970;10.082;2024-02-26T07:31:53;14.23;;;6.60;;
64188;SDS011;50493;50.970;10.082;2024-02-26T07:34:18;13.20;;;6.93;;
64188;SDS011;50493;50.970;10.082;2024-02-26T07:36:43;17.65;;;8.50;;
64188;SDS011;50493;50.970;10.082;2024-02-26T07:39:09;16.27;;;7.90;;
64188;SDS011;50493;50.970;10.082;2024-02-26T07:41:35;12.18;;;6.75;;
64188;SDS011;50493;50.970;10.082;2024-02-26T07:44:01;16.25;;;7.85;;
64188;SDS011;50493;50.970;10.082;2024-02-26T07:46:27;14.18;;;6.53;;
64188;SDS011;50493;50.970;10.082;2024-02-26T07:48:52;16.52;;;7.70;;
64188;SDS011;50493;50.970;10.082;2024-02-26T07:51:17;14.10;;;7.77;;
64188;SDS011;50493;50.970;10.082;2024-02-26T07:53:44;12.85;;;6.72;;
64188;SDS011;50493;50.970;10.082;2024-02-26T07:56:09;15.15;;;7.22;;
64188;SDS011;50493;50.970;10.082;2024-02-26T07:58:35;14.73;;;7.50;;
64188;SDS011;50493;50.970;10.082;2024-02-26T08:01:01;15.70;;;6.95;;
64188;SDS011;50493;50.970;10.082;2024-02-26T08:03:27;16.90;;;8.10;;
64188;SDS011;50493;50.970;10.082;2024-02-26T08:05:52;18.20;;;9.10;;
64188;SDS011;50493;50.970;10.082;2024-02-26T08:08:17;14.88;;;7.65;;
64188;SDS011;50493;50.970;10.082;2024-02-26T08:10:43;16.85;;;8.15;;
64188;SDS011;50493;50.970;10.082;2024-02-26T08:13:08;14.60;;;7.40;;
64188;SDS011;50493;50.970;10.082;2024-02-26T08:15:34;19.05;;;8.93;;
64188;SDS011;50493;50.970;10.082;2024-02-26T08:18:01;13.63;;;7.03;;
64188;SDS011;50493;50.970;10.082;2024-02-26T08:20:28;20.45;;;9.73;;
64188;SDS011;50493;50.970;10.082;2024-02-26T08:22:53;16.48;;;8.43;;
64188;SDS011;50493;50.970;10.082;2024-02-26T08:25:19;15.55;;;7.30;;
64188;SDS011;50493;50.970;10.082;2024-02-26T08:27:44;16.90;;;8.50;;
64188;SDS011;50493;50.970;10.082;2024-02-26T08:30:10;18.58;;;8.60;;
64188;SDS011;50493;50.970;10.082;2024-02-26T08:32:38;19.23;;;9.80;;
64188;SDS011;50493;50.970;10.082;2024-02-26T08:35:05;14.07;;;7.07;;
64188;SDS011;50493;50.970;10.082;2024-02-26T08:37:31;15.48;;;8.00;;
64188;SDS011;50493;50.970;10.082;2024-02-26T08:39:56;19.05;;;9.88;;
64188;SDS011;50493;50.970;10.082;2024-02-26T08:42:21;16.75;;;8.60;;
64188;SDS011;50493;50.970;10.082;2024-02-26T08:44:49;18.38;;;9.18;;
64188;SDS011;50493;50.970;10.082;2024-02-26T08:47:14;18.90;;;9.00;;
64188;SDS011;50493;50.970;10.082;2024-02-26T08:49:42;23.90;;;12.38;;
64188;SDS011;50493;50.970;10.082;2024-02-26T08:52:08;33.22;;;15.68;;
64188;SDS011;50493;50.970;10.082;2024-02-26T08:54:34;18.55;;;9.25;;
64188;SDS011;50493;50.970;10.082;2024-02-26T08:56:59;16.13;;;8.73;;
64188;SDS011;50493;50.970;10.082;2024-02-26T08:59:24;26.55;;;12.70;;
64188;SDS011;50493;50.970;10.082;2024-02-26T09:01:50;16.63;;;8.20;;
64188;SDS011;50493;50.970;10.082;2024-02-26T09:04:15;22.55;;;11.95;;
64188;SDS011;50493;50.970;10.082;2024-02-26T09:06:40;20.55;;;9.70;;
64188;SDS011;50493;50.970;10.082;2024-02-26T09:09:07;16.73;;;8.85;;
64188;SDS011;50493;50.970;10.082;2024-02-26T09:11:32;18.05;;;8.85;;
64188;SDS011;50493;50.970;10.082;2024-02-26T09:13:58;18.05;;;9.55;;
64188;SDS011;50493;50.970;10.082;2024-02-26T09:16:23;17.77;;;9.38;;
64188;SDS011;50493;50.970;10.082;2024-02-26T09:18:48;16.98;;;8.80;;
64188;SDS011;50493;50.970;10.082;2024-02-26T09:21:14;19.13;;;9.75;;
64188;SDS011;50493;50.970;10.082;2024-02-26T09:23:39;19.15;;;9.30;;
64188;SDS011;50493;50.970;10.082;2024-02-26T09:26:06;18.55;;;9.85;;
64188;SDS011;50493;50.970;10.082;2024-02-26T09:28:32;19.35;;;8.75;;
64188;SDS011;50493;50.970;10.082;2024-02-26T09:31:02;19.88;;;10.20;;
64188;SDS011;50493;50.970;10.082;2024-02-26T09:33:28;20.42;;;10.05;;
64188;SDS011;50493;50.970;10.082;2024-02-26T09:35:54;19.75;;;8.73;;
64188;SDS011;50493;50.970;10.082;2024-02-26T09:38:19;19.30;;;10.07;;
64188;SDS011;50493;50.970;10.082;2024-02-26T09:40:44;16.42;;;8.75;;
64188;SDS011;50493;50.970;10.082;2024-02-26T09:43:12;19.85;;;10.23;;
64188;SDS011;50493;50.970;10.082;2024-02-26T09:45:40;19.95;;;10.05;;
64188;SDS011;50493;50.970;10.082;2024-02-26T09:48:07;18.95;;;9.27;;
64188;SDS011;50493;50.970;10.082;2024-02-26T09:50:35;21.83;;;10.98;;
64188;SDS011;50493;50.970;10.082;2024-02-26T09:53:01;19.67;;;10.18;;
64188;SDS011;50493;50.970;10.082;2024-02-26T09:55:27;22.75;;;11.52;;
64188;SDS011;50493;50.970;10.082;2024-02-26T09:57:53;22.20;;;10.77;;
64188;SDS011;50493;50.970;10.082;2024-02-26T10:00:21;18.23;;;9.75;;
64188;SDS011;50493;50.970;10.082;2024-02-26T10:02:47;16.45;;;8.32;;
64188;SDS011;50493;50.970;10.082;2024-02-26T10:05:14;22.55;;;10.27;;
64188;SDS011;50493;50.970;10.082;2024-02-26T10:07:43;18.33;;;9.85;;
64188;SDS011;50493;50.970;10.082;2024-02-26T10:10:09;17.30;;;9.63;;
64188;SDS011;50493;50.970;10.082;2024-02-26T10:12:34;23.25;;;11.35;;
64188;SDS011;50493;50.970;10.082;2024-02-26T10:15:00;23.93;;;11.87;;
64188;SDS011;50493;50.970;10.082;2024-02-26T10:17:27;19.58;;;8.50;;
64188;SDS011;50493;50.970;10.082;2024-02-26T10:19:53;20.98;;;10.27;;
64188;SDS011;50493;50.970;10.082;2024-02-26T10:22:21;27.50;;;12.10;;
64188;SDS011;50493;50.970;10.082;2024-02-26T10:24:47;24.83;;;11.90;;
64188;SDS011;50493;50.970;10.082;2024-02-26T10:27:12;18.92;;;9.77;;
64188;SDS011;50493;50.970;10.082;2024-02-26T10:29:38;22.98;;;11.23;;
64188;SDS011;50493;50.970;10.082;2024-02-26T10:32:03;20.50;;;10.23;;
64188;SDS011;50493;50.970;10.082;2024-02-26T10:34:30;22.23;;;11.18;;
64188;SDS011;50493;50.970;10.082;2024-02-26T10:36:56;18.90;;;9.80;;
64188;SDS011;50493;50.970;10.082;2024-02-26T10:39:21;21.05;;;11.00;;
64188;SDS011;50493;50.970;10.082;2024-02-26T10:41:47;25.52;;;12.13;;
64188;SDS011;50493;50.970;10.082;2024-02-26T10:44:12;21.65;;;9.90;;
64188;SDS011;50493;50.970;10.082;2024-02-26T10:46:38;21.20;;;11.05;;
64188;SDS011;50493;50.970;10.082;2024-02-26T10:49:05;22.08;;;11.30;;
64188;SDS011;50493;50.970;10.082;2024-02-26T10:51:38;22.67;;;11.32;;
64188;SDS011;50493;50.970;10.082;2024-02-26T10:54:08;19.33;;;9.57;;
64188;SDS011;50493;50.970;10.082;2024-02-26T10:56:37;21.05;;;11.13;;
64188;SDS011;50493;50.970;10.082;2024-02-26T10:59:06;22.88;;;11.48;;
64188;SDS011;50493;50.970;10.082;2024-02-26T11:01:32;26.88;;;14.40;;
64188;SDS011;50493;50.970;10.082;2024-02-26T11:04:02;24.08;;;12.65;;
64188;SDS011;50493;50.970;10.082;2024-02-26T11:06:28;19.25;;;10.10;;
64188;SDS011;50493;50.970;10.082;2024-02-26T11:08:55;25.00;;;13.38;;
64188;SDS011;50493;50.970;10.082;2024-02-26T11:11:21;27.63;;;13.70;;
64188;SDS011;50493;50.970;10.082;2024-02-26T11:13:48;26.73;;;13.27;;
64188;SDS011;50493;50.970;10.082;2024-02-26T11:16:16;25.02;;;12.95;;
64188;SDS011;50493;50.970;10.082;2024-02-26T11:18:43;25.52;;;13.35;;
64188;SDS011;50493;50.970;10.082;2024-02-26T11:21:13;25.35;;;13.65;;
64188;SDS011;50493;50.970;10.082;2024-02-26T11:23:40;26.38;;;12.98;;
64188;SDS011;50493;50.970;10.082;2024-02-26T11:26:07;22.38;;;11.73;;
64188;SDS011;50493;50.970;10.082;2024-02-26T11:28:35;25.00;;;12.93;;
64188;SDS011;50493;50.970;10.082;2024-02-26T11:31:03;21.15;;;10.95;;
64188;SDS011;50493;50.970;10.082;2024-02-26T11:33:29;24.52;;;13.30;;
64188;SDS011;50493;50.970;10.082;2024-02-26T11:35:55;27.52;;;15.48;;
64188;SDS011;50493;50.970;10.082;2024-02-26T11:38:21;26.27;;;14.63;;
64188;SDS011;50493;50.970;10.082;2024-02-26T11:40:49;21.88;;;11.82;;
64188;SDS011;50493;50.970;10.082;2024-02-26T11:43:16;26.25;;;12.13;;
64188;SDS011;50493;50.970;10.082;2024-02-26T11:45:48;24.13;;;12.73;;
64188;SDS011;50493;50.970;10.082;2024-02-26T11:48:16;34.72;;;17.15;;
64188;SDS011;50493;50.970;10.082;2024-02-26T11:50:46;25.40;;;14.05;;
64188;SDS011;50493;50.970;10.082;2024-02-26T11:53:22;24.52;;;13.05;;
64188;SDS011;50493;50.970;10.082;2024-02-26T11:58:40;28.60;;;15.38;;
64188;SDS011;50493;50.970;10.082;2024-02-26T12:01:06;26.13;;;13.32;;
64188;SDS011;50493;50.970;10.082;2024-02-26T12:04:00;26.27;;;14.13;;
64188;SDS011;50493;50.970;10.082;2024-02-26T12:06:26;23.73;;;12.45;;
64188;SDS011;50493;50.970;10.082;2024-02-26T12:08:53;27.25;;;14.35;;
64188;SDS011;50493;50.970;10.082;2024-02-26T12:11:19;26.23;;;14.25;;
64188;SDS011;50493;50.970;10.082;2024-02-26T12:13:48;26.20;;;13.38;;
64188;SDS011;50493;50.970;10.082;2024-02-26T12:19:00;28.45;;;14.45;;
64188;SDS011;50493;50.970;10.082;2024-02-26T12:21:28;36.75;;;17.52;;
64188;SDS011;50493;50.970;10.082;2024-02-26T12:23:54;25.75;;;13.35;;
64188;SDS011;50493;50.970;10.082;2024-02-26T12:26:19;26.23;;;13.45;;
64188;SDS011;50493;50.970;10.082;2024-02-26T12:28:44;25.42;;;13.63;;
64188;SDS011;50493;50.970;10.082;2024-02-26T12:31:13;26.17;;;13.07;;
64188;SDS011;50493;50.970;10.082;2024-02-26T12:33:39;31.52;;;16.48;;
64188;SDS011;50493;50.970;10.082;2024-02-26T12:36:04;29.98;;;16.30;;
64188;SDS011;50493;50.970;10.082;2024-02-26T12:38:30;27.67;;;14.88;;
64188;SDS011;50493;50.970;10.082;2024-02-26T12:40:56;27.88;;;14.57;;
64188;SDS011;50493;50.970;10.082;2024-02-26T12:43:21;29.05;;;14.73;;
64188;SDS011;50493;50.970;10.082;2024-02-26T12:45:48;27.60;;;13.57;;
64188;SDS011;50493;50.970;10.082;2024-02-26T12:48:14;28.70;;;15.32;;
64188;SDS011;50493;50.970;10.082;2024-02-26T12:50:39;26.52;;;13.90;;
64188;SDS011;50493;50.970;10.082;2024-02-26T12:53:04;26.30;;;13.95;;
64188;SDS011;50493;50.970;10.082;2024-02-26T12:55:30;26.50;;;13.93;;
64188;SDS011;50493;50.970;10.082;2024-02-26T12:57:59;28.73;;;16.42;;
64188;SDS011;50493;50.970;10.082;2024-02-26T13:00:26;31.17;;;15.43;;
64188;SDS011;50493;50.970;10.082;2024-02-26T13:02:54;25.63;;;14.10;;
64188;SDS011;50493;50.970;10.082;2024-02-26T13:05:20;29.63;;;15.63;;
64188;SDS011;50493;50.970;10.082;2024-02-26T13:07:47;29.13;;;15.93;;
64188;SDS011;50493;50.970;10.082;2024-02-26T13:10:13;27.33;;;13.95;;
64188;SDS011;50493;50.970;10.082;2024-02-26T13:12:41;27.08;;;15.45;;
64188;SDS011;50493;50.970;10.082;2024-02-26T13:15:09;33.05;;;16.35;;
64188;SDS011;50493;50.970;10.082;2024-02-26T13:17:39;27.27;;;15.05;;
64188;SDS011;50493;50.970;10.082;2024-02-26T13:20:08;29.27;;;15.25;;
64188;SDS011;50493;50.970;10.082;2024-02-26T13:22:35;29.20;;;15.65;;
64188;SDS011;50493;50.970;10.082;2024-02-26T13:25:00;29.63;;;15.90;;
64188;SDS011;50493;50.970;10.082;2024-02-26T13:27:28;28.52;;;16.00;;
64188;SDS011;50493;50.970;10.082;2024-02-26T13:32:38;31.50;;;16.60;;
64188;SDS011;50493;50.970;10.082;2024-02-26T13:35:06;27.83;;;15.88;;
64188;SDS011;50493;50.970;10.082;2024-02-26T13:37:32;30.75;;;15.93;;
64188;SDS011;50493;50.970;10.082;2024-02-26T13:39:58;30.50;;;16.20;;
64188;SDS011;50493;50.970;10.082;2024-02-26T13:42:23;29.60;;;16.20;;
64188;SDS011;50493;50.970;10.082;2024-02-26T13:44:48;32.47;;;17.23;;
64188;SDS011;50493;50.970;10.082;2024-02-26T13:47:14;33.22;;;17.27;;
64188;SDS011;50493;50.970;10.082;2024-02-26T13:49:39;46.00;;;23.58;;
64188;SDS011;50493;50.970;10.082;2024-02-26T13:52:06;30.60;;;15.75;;
64188;SDS011;50493;50.970;10.082;2024-02-26T13:54:31;31.48;;;17.13;;
64188;SDS011;50493;50.970;10.082;2024-02-26T13:56:57;29.23;;;16.63;;
64188;SDS011;50493;50.970;10.082;2024-02-26T13:59:23;28.75;;;15.52;;
64188;SDS011;50493;50.970;10.082;2024-02-26T14:01:48;29.23;;;15.50;;
64188;SDS011;50493;50.970;10.082;2024-02-26T14:04:13;32.08;;;16.17;;
64188;SDS011;50493;50.970;10.082;2024-02-26T14:06:39;29.95;;;16.38;;
64188;SDS011;50493;50.970;10.082;2024-02-26T14:09:05;29.95;;;16.02;;
64188;SDS011;50493;50.970;10.082;2024-02-26T14:11:31;32.35;;;16.88;;
64188;SDS011;50493;50.970;10.082;2024-02-26T14:13:56;28.40;;;15.23;;
64188;SDS011;50493;50.970;10.082;2024-02-26T14:16:21;30.80;;;16.67;;
64188;SDS011;50493;50.970;10.082;2024-02-26T14:18:47;26.60;;;15.43;;
64188;SDS011;50493;50.970;10.082;2024-02-26T14:21:12;31.40;;;17.00;;
64188;SDS011;50493;50.970;10.082;2024-02-26T14:23:38;28.45;;;15.23;;